Time;durP1;ratioP1;P1;durP2;ratioP2;P2;SDS_P1;SDS_P2;PMS_P1;PMS_P2;Temp;Humidity;BMP_temperature;BMP_pressure;BME280_temperature;BME280_humidity;BME280_pressure;Samples;Min_cycle;Max_cycle;Signal;HPM_P1;HPM_P2
2023/04/09 00:00:22;;;;;;;;;2.00;2.00;;;;;20.10;48.49;101737.59;110178;1264;19403;-41
2023/04/09 00:03:09;;;;;;;;;2.00;2.00;;;;;20.10;48.51;101739.95;110193;1264;21352;-41
2023/04/09 00:05:37;;;;;;;;;2.00;2.00;;;;;20.10;48.61;101740.84;110113;1264;18975;-42
2023/04/09 00:08:04;;;;;;;;;2.00;2.00;;;;;20.11;48.43;101740.84;110210;1251;19558;-41
2023/04/09 00:10:32;;;;;;;;;4.00;3.00;;;;;20.10;48.46;101739.75;110185;1251;19640;-41
2023/04/09 00:13:00;;;;;;;;;4.00;4.00;;;;;20.11;48.56;101744.45;110251;1264;18641;-41
2023/04/09 00:15:27;;;;;;;;;4.00;4.00;;;;;20.11;48.56;101741.91;110217;1249;19349;-41
2023/04/09 00:17:55;;;;;;;;;4.50;4.00;;;;;20.11;48.37;101742.27;110208;1251;18530;-41
2023/04/09 00:20:23;;;;;;;;;4.00;2.00;;;;;20.11;48.60;101740.06;110205;1264;18817;-39
2023/04/09 00:22:50;;;;;;;;;4.00;3.33;;;;;20.10;48.64;101745.19;110211;1251;21961;-41
2023/04/09 00:25:18;;;;;;;;;4.00;2.00;;;;;20.11;48.71;101748.95;110212;1250;19582;-41
2023/04/09 00:27:46;;;;;;;;;4.00;2.00;;;;;20.11;48.54;101749.70;110235;1264;19972;-42
2023/04/09 00:30:13;;;;;;;;;4.00;2.00;;;;;20.10;48.62;101746.13;110231;1251;20846;-40
2023/04/09 00:32:41;;;;;;;;;6.00;4.00;;;;;20.11;48.69;101744.08;110213;1264;18473;-40
2023/04/09 00:35:08;;;;;;;;;2.00;2.00;;;;;20.11;48.58;101743.31;110209;1249;20074;-40
2023/04/09 00:37:35;;;;;;;;;3.33;2.00;;;;;20.12;48.60;101745.63;110255;1264;20696;-40
2023/04/09 00:40:03;;;;;;;;;2.00;2.00;;;;;20.11;48.73;101739.20;110237;1264;18383;-40
2023/04/09 00:42:30;;;;;;;;;4.00;2.00;;;;;20.11;48.58;101740.82;110212;1251;20037;-41
2023/04/09 00:44:58;;;;;;;;;2.00;2.00;;;;;20.11;48.63;101739.35;110178;1264;20812;-41
2023/04/09 00:47:26;;;;;;;;;2.00;2.00;;;;;20.10;48.54;101736.69;110206;1251;20587;-41
2023/04/09 00:49:53;;;;;;;;;4.00;4.00;;;;;20.11;48.53;101737.14;110199;1264;19978;-42
2023/04/09 00:52:21;;;;;;;;;2.00;2.00;;;;;20.11;48.66;101738.29;110196;1251;20933;-44
2023/04/09 00:54:48;;;;;;;;;4.00;4.00;;;;;20.11;48.63;101737.92;110251;1250;19705;-41
2023/04/09 00:57:16;;;;;;;;;4.00;4.00;;;;;20.10;48.77;101737.63;110179;1264;18620;-41
2023/04/09 00:59:43;;;;;;;;;2.33;2.33;;;;;20.11;48.58;101738.29;110198;1251;20780;-41
2023/04/09 01:02:11;;;;;;;;;4.00;2.00;;;;;20.10;48.63;101736.14;110205;1264;21646;-41
2023/04/09 01:04:38;;;;;;;;;4.00;4.00;;;;;20.11;48.79;101736.63;110219;1251;20117;-40
2023/04/09 01:07:06;;;;;;;;;4.00;4.00;;;;;20.10;48.65;101735.62;110184;1264;19338;-41
2023/04/09 01:09:33;;;;;;;;;2.00;2.00;;;;;20.10;48.59;101737.95;110214;1264;19555;-41
2023/04/09 01:12:01;;;;;;;;;2.00;2.00;;;;;20.10;48.69;101739.26;110203;1264;18980;-40
2023/04/09 01:14:28;;;;;;;;;4.00;4.00;;;;;20.10;48.80;101747.38;110214;1251;20856;-41
2023/04/09 01:16:56;;;;;;;;;4.00;4.00;;;;;20.10;48.84;101747.73;110200;1264;18569;-40
2023/04/09 01:19:23;;;;;;;;;3.00;3.00;;;;;20.10;48.75;101746.48;110209;1256;18770;-41
2023/04/09 01:21:51;;;;;;;;;2.00;2.00;;;;;20.10;48.80;101747.42;110202;1264;22607;-41
2023/04/09 01:24:18;;;;;;;;;4.00;4.00;;;;;20.10;48.75;101744.18;110208;1251;19604;-41
2023/04/09 01:26:46;;;;;;;;;4.00;4.00;;;;;20.10;48.88;101749.60;110246;1264;22840;-42
2023/04/09 01:29:13;;;;;;;;;4.50;4.00;;;;;20.10;48.67;101742.55;110159;1251;20846;-40
2023/04/09 01:31:41;;;;;;;;;4.00;4.00;;;;;20.10;48.79;101746.66;110237;1251;20732;-40
2023/04/09 01:34:09;;;;;;;;;5.00;5.00;;;;;20.10;48.91;101747.77;110202;1264;20244;-41
2023/04/09 01:36:36;;;;;;;;;2.00;2.00;;;;;20.10;48.89;101744.34;110222;1251;20820;-41
2023/04/09 01:39:04;;;;;;;;;4.00;3.00;;;;;20.09;48.80;101746.73;110202;1251;19661;-41
2023/04/09 01:41:31;;;;;;;;;2.00;2.00;;;;;20.09;48.89;101744.36;110227;1264;18634;-41
2023/04/09 01:44:00;;;;;;;;;4.00;2.00;;;;;20.10;48.77;101748.14;110214;1258;19409;-41
2023/04/09 01:46:28;;;;;;;;;2.00;2.00;;;;;20.10;48.86;101747.40;110194;1251;19880;-42
2023/04/09 01:48:55;;;;;;;;;4.00;2.33;;;;;20.10;48.84;101748.28;110222;1264;19922;-41
2023/04/09 01:51:23;;;;;;;;;2.00;2.00;;;;;20.10;48.90;101745.05;110211;1251;20763;-41
2023/04/09 01:53:50;;;;;;;;;4.00;3.50;;;;;20.10;48.87;101747.79;110222;1264;19892;-39
2023/04/09 01:56:18;;;;;;;;;4.00;2.00;;;;;20.10;48.91;101747.08;110196;1264;20468;-40
2023/04/09 01:58:45;;;;;;;;;3.00;2.33;;;;;20.09;49.00;101748.20;110216;1251;21889;-41
2023/04/09 02:01:13;;;;;;;;;1.00;1.00;;;;;20.10;49.10;101747.96;110187;1251;19594;-41
2023/04/09 02:03:40;;;;;;;;;3.00;2.00;;;;;20.10;49.04;101746.68;110245;1250;23897;-41
2023/04/09 02:06:08;;;;;;;;;4.00;2.00;;;;;20.10;48.91;101752.82;110231;1264;21243;-41
2023/04/09 02:08:35;;;;;;;;;2.00;2.00;;;;;20.10;48.92;101750.14;110210;1250;18253;-40
2023/04/09 02:11:02;;;;;;;;;3.00;2.00;;;;;20.10;49.03;101748.88;110202;1264;22252;-41
2023/04/09 02:13:30;;;;;;;;;4.00;4.00;;;;;20.09;48.94;101746.02;110175;1251;20934;-41
2023/04/09 02:15:57;;;;;;;;;2.00;2.00;;;;;20.09;48.89;101744.59;110193;1251;19679;-41
2023/04/09 02:18:26;;;;;;;;;4.00;2.00;;;;;20.10;48.97;101742.17;110205;1264;19974;-41
2023/04/09 02:20:53;;;;;;;;;2.00;2.00;;;;;20.09;49.10;101742.95;110198;1264;22165;-41
2023/04/09 02:23:21;;;;;;;;;2.00;2.00;;;;;20.09;49.18;101740.75;110176;1251;19636;-41
2023/04/09 02:25:48;;;;;;;;;2.00;2.00;;;;;20.09;49.05;101740.23;110185;1264;18513;-41
2023/04/09 02:28:15;;;;;;;;;2.00;2.00;;;;;20.09;48.99;101738.98;110246;1251;19354;-41
2023/04/09 02:30:43;;;;;;;;;2.00;2.00;;;;;20.08;49.17;101734.30;110183;1251;19641;-41
2023/04/09 02:33:10;;;;;;;;;2.33;2.33;;;;;20.09;49.07;101735.92;110204;1257;20075;-44
2023/04/09 02:35:38;;;;;;;;;3.00;2.00;;;;;20.08;49.06;101737.05;110168;1251;22271;-41
2023/04/09 02:38:06;;;;;;;;;2.00;2.00;;;;;20.08;49.15;101731.48;110171;1264;18332;-41
2023/04/09 02:40:34;;;;;;;;;2.00;1.00;;;;;20.09;49.06;101736.27;110159;1250;21434;-41
2023/04/09 02:43:01;;;;;;;;;2.00;2.00;;;;;20.08;49.08;101732.52;110138;1251;21178;-41
2023/04/09 02:45:29;;;;;;;;;4.00;2.00;;;;;20.08;48.98;101731.23;110200;1251;19844;-41
2023/04/09 02:47:57;;;;;;;;;2.00;2.00;;;;;20.08;48.90;101725.28;110289;1264;22806;-40
2023/04/09 02:50:24;;;;;;;;;2.00;2.00;;;;;20.08;49.16;101724.36;110249;1264;20875;-40
2023/04/09 02:52:52;;;;;;;;;3.00;3.00;;;;;20.09;48.97;101722.67;110177;1264;19795;-40
2023/04/09 02:55:19;;;;;;;;;2.00;2.00;;;;;20.08;48.94;101724.19;110196;1250;20048;-41
2023/04/09 02:57:47;;;;;;;;;3.00;2.00;;;;;20.08;49.12;101722.19;110187;1251;20786;-41
2023/04/09 03:00:14;;;;;;;;;4.00;4.00;;;;;20.08;48.99;101716.40;110169;1250;19622;-41
2023/04/09 03:02:42;;;;;;;;;2.00;2.00;;;;;20.07;49.07;101714.31;110192;1257;18612;-40
2023/04/09 03:05:09;;;;;;;;;2.00;2.00;;;;;20.07;49.11;101719.18;110165;1264;20695;-40
2023/04/09 03:07:36;;;;;;;;;3.00;3.00;;;;;20.08;49.12;101724.94;110195;1264;22238;-40
2023/04/09 03:10:04;;;;;;;;;3.00;2.00;;;;;20.08;49.10;101726.41;110216;1264;18669;-40
2023/04/09 03:12:31;;;;;;;;;5.00;4.00;;;;;20.08;49.04;101726.20;110211;1249;21633;-41
2023/04/09 03:14:59;;;;;;;;;2.00;2.00;;;;;20.08;49.00;101730.96;110214;1264;18419;-40
2023/04/09 03:17:26;;;;;;;;;2.00;2.00;;;;;20.08;49.03;101728.96;110229;1251;20086;-41
2023/04/09 03:19:54;;;;;;;;;2.00;2.00;;;;;20.07;49.13;101724.80;110197;1264;22190;-41
2023/04/09 03:22:21;;;;;;;;;4.00;4.00;;;;;20.07;49.12;101722.10;110193;1251;19553;-40
2023/04/09 03:24:48;;;;;;;;;2.00;2.00;;;;;20.07;49.25;101722.83;110196;1251;20011;-40
2023/04/09 03:27:16;;;;;;;;;2.00;2.00;;;;;20.06;49.11;101724.38;110196;1264;19362;-42
2023/04/09 03:29:43;;;;;;;;;4.67;2.67;;;;;20.07;49.31;101724.49;110208;1264;18449;-40
2023/04/09 03:32:11;;;;;;;;;2.33;2.33;;;;;20.07;49.14;101722.69;110204;1264;19964;-40
2023/04/09 03:34:38;;;;;;;;;2.33;2.33;;;;;20.07;49.14;101726.70;110215;1251;20813;-40
2023/04/09 03:37:05;;;;;;;;;2.00;2.00;;;;;20.06;49.32;101730.37;110212;1259;19648;-40
2023/04/09 03:39:33;;;;;;;;;4.00;4.00;;;;;20.07;49.19;101732.51;110172;1264;22280;-40
2023/04/09 03:42:00;;;;;;;;;2.00;2.00;;;;;20.06;49.06;101725.64;110191;1251;20894;-40
2023/04/09 03:44:28;;;;;;;;;1.00;1.00;;;;;20.07;49.03;101728.50;110189;1264;19507;-39
2023/04/09 03:46:55;;;;;;;;;1.50;1.50;;;;;20.06;49.08;101722.80;110201;1251;21525;-40
2023/04/09 03:49:23;;;;;;;;;3.00;2.00;;;;;20.06;49.16;101720.23;110147;1251;20754;-40
2023/04/09 03:51:50;;;;;;;;;1.00;1.00;;;;;20.06;49.25;101723.32;110244;1251;19743;-40
2023/04/09 03:54:18;;;;;;;;;2.00;2.00;;;;;20.05;49.28;101723.98;110280;1251;21624;-40
2023/04/09 03:56:45;;;;;;;;;2.50;1.50;;;;;20.06;49.24;101725.48;110134;1264;19324;-40
2023/04/09 03:59:12;;;;;;;;;2.00;2.00;;;;;20.07;48.99;101728.29;110153;1264;18439;-40
2023/04/09 04:01:40;;;;;;;;;1.00;1.00;;;;;20.06;49.22;101722.23;110139;1264;18614;-40
2023/04/09 04:04:07;;;;;;;;;2.00;2.00;;;;;20.07;49.20;101722.34;110117;1264;19572;-41
2023/04/09 04:06:35;;;;;;;;;2.00;2.00;;;;;20.07;49.10;101721.45;110192;1251;19850;-40
2023/04/09 04:09:02;;;;;;;;;2.00;2.00;;;;;20.06;49.17;101717.48;110213;1251;22131;-40
2023/04/09 04:11:30;;;;;;;;;2.00;2.00;;;;;20.06;49.15;101723.89;110219;1264;20236;-41
2023/04/09 04:13:57;;;;;;;;;2.00;2.00;;;;;20.05;49.15;101726.13;110197;1264;19624;-40
2023/04/09 04:16:24;;;;;;;;;3.00;3.00;;;;;20.07;49.15;101730.67;110208;1257;24074;-40
2023/04/09 04:18:52;;;;;;;;;2.00;2.00;;;;;20.06;49.12;101727.10;110179;1264;19331;-40
2023/04/09 04:21:19;;;;;;;;;1.50;1.50;;;;;20.06;49.04;101725.90;110232;1264;22169;-40
2023/04/09 04:23:47;;;;;;;;;2.00;2.00;;;;;20.06;49.20;101726.91;110205;1251;20266;-40
2023/04/09 04:26:14;;;;;;;;;4.00;4.00;;;;;20.07;49.26;101727.72;110200;1264;19319;-40
2023/04/09 04:28:42;;;;;;;;;2.00;2.00;;;;;20.06;49.41;101722.43;110192;1251;19600;-43
2023/04/09 04:31:10;;;;;;;;;2.00;2.00;;;;;20.06;49.33;101718.56;110205;1264;18629;-40
2023/04/09 04:33:37;;;;;;;;;2.00;2.00;;;;;20.06;49.39;101717.90;110236;1249;20947;-40
2023/04/09 04:36:05;;;;;;;;;4.00;4.00;;;;;20.05;49.20;101712.35;110215;1264;19521;-41
2023/04/09 04:38:32;;;;;;;;;3.50;2.00;;;;;20.05;49.29;101708.89;110255;1260;19981;-40
2023/04/09 04:41:00;;;;;;;;;5.00;2.50;;;;;20.05;49.20;101702.02;110205;1264;20868;-40
2023/04/09 04:43:27;;;;;;;;;1.00;1.00;;;;;20.05;49.43;101705.05;110187;1251;19593;-39
2023/04/09 04:45:55;;;;;;;;;1.00;1.00;;;;;20.05;49.45;101709.81;110195;1257;18646;-40
2023/04/09 04:48:22;;;;;;;;;2.00;2.00;;;;;20.06;49.18;101713.49;110194;1264;22216;-40
2023/04/09 04:50:49;;;;;;;;;1.00;1.00;;;;;20.05;49.30;101715.09;110205;1251;19554;-40
2023/04/09 04:53:17;;;;;;;;;2.00;2.00;;;;;20.05;49.37;101717.59;110187;1251;22215;-41
2023/04/09 04:55:44;;;;;;;;;2.00;2.00;;;;;20.04;49.22;101717.10;110209;1264;20676;-40
2023/04/09 04:58:12;;;;;;;;;2.50;2.50;;;;;20.05;49.23;101716.84;110194;1264;18484;-41
2023/04/09 05:00:39;;;;;;;;;4.00;2.00;;;;;20.07;49.44;101715.74;110204;1250;18741;-41
2023/04/09 05:03:07;;;;;;;;;1.00;1.00;;;;;20.09;49.39;101725.91;110222;1264;22310;-41
2023/04/09 05:05:34;;;;;;;;;2.00;2.00;;;;;20.09;49.38;101728.42;110219;1264;19546;-42
2023/04/09 05:08:01;;;;;;;;;1.00;1.00;;;;;20.09;49.42;101730.77;110208;1264;20003;-41
2023/04/09 05:10:29;;;;;;;;;2.00;2.00;;;;;20.08;49.60;101739.58;110191;1251;22187;-41
2023/04/09 05:12:57;;;;;;;;;2.00;2.00;;;;;20.08;49.58;101739.43;110203;1264;22385;-41
2023/04/09 05:15:24;;;;;;;;;4.00;2.33;;;;;20.08;49.68;101743.08;110211;1264;20132;-40
2023/04/09 05:17:52;;;;;;;;;2.00;2.00;;;;;20.11;49.91;101745.28;110207;1264;19975;-41
2023/04/09 05:20:19;;;;;;;;;3.00;3.00;;;;;20.13;49.84;101742.00;110189;1264;21123;-41
2023/04/09 05:22:47;;;;;;;;;4.00;2.00;;;;;20.15;49.84;101743.05;110207;1264;18635;-43
2023/04/09 05:25:16;;;;;;;;;1.50;1.50;;;;;20.18;49.96;101746.11;110229;1264;19378;-40
2023/04/09 05:27:43;;;;;;;;;2.00;2.00;;;;;20.20;50.58;101752.21;110178;1264;18436;-40
2023/04/09 05:30:10;;;;;;;;;2.00;2.00;;;;;20.20;50.72;101751.83;110219;1251;21054;-40
2023/04/09 05:32:38;;;;;;;;;2.00;2.00;;;;;20.19;50.83;101753.58;110204;1251;20723;-40
2023/04/09 05:35:05;;;;;;;;;1.67;1.67;;;;;20.18;51.71;101753.67;110193;1251;18575;-40
2023/04/09 05:37:33;;;;;;;;;3.00;3.00;;;;;20.17;51.90;101750.13;110204;1264;19974;-40
2023/04/09 05:40:00;;;;;;;;;2.00;2.00;;;;;20.16;52.16;101747.70;110214;1264;19326;-40
2023/04/09 05:42:28;;;;;;;;;2.00;2.00;;;;;20.16;51.87;101752.65;110203;1264;18536;-40
2023/04/09 05:44:55;;;;;;;;;2.00;2.00;;;;;20.15;52.00;101757.83;110200;1264;19948;-40
2023/04/09 05:47:23;;;;;;;;;4.00;2.00;;;;;20.15;52.11;101765.05;110234;1251;20959;-40
2023/04/09 05:49:50;;;;;;;;;2.00;1.00;;;;;20.14;52.00;101768.60;110202;1251;19526;-40
2023/04/09 05:52:18;;;;;;;;;1.50;1.50;;;;;20.14;52.08;101767.12;110227;1264;18611;-40
2023/04/09 05:54:46;;;;;;;;;1.00;1.00;;;;;20.12;51.97;101760.09;110208;1264;19360;-40
2023/04/09 05:57:13;;;;;;;;;1.00;1.00;;;;;20.13;52.04;101760.57;110218;1264;18388;-40
2023/04/09 05:59:40;;;;;;;;;2.00;1.50;;;;;20.12;52.05;101760.39;110124;1264;20163;-41
2023/04/09 06:02:08;;;;;;;;;2.00;2.00;;;;;20.12;51.91;101757.88;110116;1264;20699;-40
2023/04/09 06:04:35;;;;;;;;;2.00;2.00;;;;;20.13;51.76;101757.23;110279;1261;20471;-40
2023/04/09 06:07:03;;;;;;;;;2.00;2.00;;;;;20.13;51.64;101754.55;110237;1264;18564;-40
2023/04/09 06:09:30;;;;;;;;;2.00;2.00;;;;;20.13;51.60;101758.56;110214;1264;20701;-40
2023/04/09 06:11:57;;;;;;;;;2.00;1.00;;;;;20.13;51.46;101754.35;110208;1251;19643;-38
2023/04/09 06:14:25;;;;;;;;;2.00;2.00;;;;;20.20;51.77;101758.02;110185;1264;22909;-38
2023/04/09 06:16:52;;;;;;;;;2.00;2.00;;;;;20.19;51.48;101760.70;110215;1251;20755;-39
2023/04/09 06:19:20;;;;;;;;;1.00;1.00;;;;;20.20;51.53;101768.77;110186;1264;18382;-38
2023/04/09 06:21:47;;;;;;;;;1.00;1.00;;;;;20.21;51.51;101772.32;110193;1251;22219;-38
2023/04/09 06:24:15;;;;;;;;;2.00;2.00;;;;;20.21;51.88;101777.50;110123;1264;19348;-39
2023/04/09 06:26:42;;;;;;;;;1.00;1.00;;;;;20.22;52.24;101782.38;110218;1250;19607;-39
2023/04/09 06:29:10;;;;;;;;;2.00;2.00;;;;;20.21;52.83;101781.14;110200;1264;18646;-39
2023/04/09 06:31:37;;;;;;;;;2.00;1.00;;;;;20.21;52.85;101788.09;110217;1264;20639;-40
2023/04/09 06:34:04;;;;;;;;;1.00;1.00;;;;;20.21;53.25;101786.79;110247;1264;19695;-38
2023/04/09 06:36:32;;;;;;;;;4.00;2.00;;;;;20.22;53.05;101793.23;110235;1264;18798;-38
2023/04/09 06:38:59;;;;;;;;;4.00;2.00;;;;;20.23;53.16;101795.88;110214;1264;22132;-39
2023/04/09 06:41:27;;;;;;;;;4.00;2.00;;;;;20.21;53.08;101800.43;110203;1251;19637;-39
2023/04/09 06:43:54;;;;;;;;;2.00;2.00;;;;;20.28;53.51;101800.64;110239;1264;21046;-38
2023/04/09 06:46:22;;;;;;;;;1.00;1.00;;;;;20.28;53.80;101803.70;110253;1251;20712;-38
2023/04/09 06:48:49;;;;;;;;;1.00;1.00;;;;;20.28;54.27;101804.83;110255;1251;22005;-39
2023/04/09 06:51:17;;;;;;;;;2.00;2.00;;;;;20.29;54.16;101807.98;110273;1264;19888;-38
2023/04/09 06:53:46;;;;;;;;;1.00;1.00;;;;;20.28;54.04;101808.41;110274;1251;22700;-38
2023/04/09 06:56:14;;;;;;;;;2.00;2.00;;;;;20.30;54.34;101806.97;110297;1264;22369;-39
2023/04/09 06:58:41;;;;;;;;;2.00;1.00;;;;;20.31;54.46;101812.52;110285;1249;18618;-39
2023/04/09 07:01:09;;;;;;;;;2.00;2.00;;;;;20.32;54.32;101814.79;110248;1264;20905;-38
2023/04/09 07:03:36;;;;;;;;;2.00;2.00;;;;;20.35;54.64;101813.20;110292;1250;18535;-39
2023/04/09 07:06:04;;;;;;;;;4.00;4.00;;;;;20.36;54.50;101821.34;110249;1250;20068;-40
2023/04/09 07:08:31;;;;;;;;;2.00;2.00;;;;;20.35;54.81;101823.73;110219;1251;21911;-39
2023/04/09 07:10:59;;;;;;;;;2.00;2.00;;;;;20.34;55.01;101823.31;110230;1264;19562;-39
2023/04/09 07:13:26;;;;;;;;;1.00;1.00;;;;;20.33;54.87;101824.48;110238;1251;20046;-41
2023/04/09 07:15:53;;;;;;;;;2.00;2.00;;;;;20.35;54.98;101822.25;110209;1260;20843;-39
2023/04/09 07:18:21;;;;;;;;;24.67;18.67;;;;;20.40;54.53;101830.73;110224;1251;19595;-40
2023/04/09 07:20:48;;;;;;;;;64.00;41.00;;;;;20.39;54.58;101826.60;110210;1257;23237;-39
2023/04/09 07:23:16;;;;;;;;;108.50;78.50;;;;;20.40;54.61;101831.79;110191;1251;20769;-40
2023/04/09 07:25:43;;;;;;;;;105.50;76.00;;;;;20.38;54.60;101831.98;110198;1250;20058;-38
2023/04/09 07:28:11;;;;;;;;;116.00;86.00;;;;;20.40;54.95;101833.56;110157;1264;18930;-39
2023/04/09 07:30:38;;;;;;;;;101.00;69.00;;;;;20.43;55.18;101834.69;110202;1250;20624;-39
2023/04/09 07:33:06;;;;;;;;;95.50;69.50;;;;;20.42;55.02;101834.36;110206;1264;22364;-39
2023/04/09 07:35:33;;;;;;;;;90.50;65.00;;;;;20.43;55.58;101837.65;110196;1264;18764;-40
2023/04/09 07:38:01;;;;;;;;;84.00;60.00;;;;;20.43;55.68;101834.20;110249;1251;21986;-40
2023/04/09 07:40:28;;;;;;;;;84.00;58.00;;;;;20.42;55.31;101834.82;110197;1264;22782;-39
2023/04/09 07:42:57;;;;;;;;;86.00;61.00;;;;;20.44;55.06;101831.00;110258;1264;20061;-39
2023/04/09 07:45:24;;;;;;;;;76.50;55.50;;;;;20.42;55.25;101830.86;110228;1264;22332;-39
2023/04/09 07:47:52;;;;;;;;;62.00;48.00;;;;;20.41;55.54;101828.77;110225;1264;18575;-40
2023/04/09 07:50:19;;;;;;;;;65.00;45.00;;;;;20.42;55.38;101831.20;110200;1264;22345;-39
2023/04/09 07:52:47;;;;;;;;;50.00;41.00;;;;;20.44;55.40;101834.12;110237;1251;20831;-40
2023/04/09 07:55:14;;;;;;;;;51.50;40.50;;;;;20.44;55.38;101832.86;110273;1264;19971;-40
2023/04/09 07:57:44;;;;;;;;;43.50;36.00;;;;;20.43;55.28;101833.27;110203;1264;22172;-43
2023/04/09 08:00:11;;;;;;;;;32.50;29.00;;;;;20.43;54.90;101826.41;110227;1251;23226;-40
2023/04/09 08:02:39;;;;;;;;;37.00;31.00;;;;;20.44;54.97;101827.92;110206;1250;22363;-40
2023/04/09 08:05:06;;;;;;;;;35.00;28.50;;;;;20.43;54.84;101827.85;110235;1252;20191;-41
2023/04/09 08:07:34;;;;;;;;;27.00;24.00;;;;;20.43;54.78;101826.35;110241;1264;20829;-40
2023/04/09 08:10:01;;;;;;;;;29.00;22.00;;;;;20.43;54.85;101827.84;110236;1250;20724;-40
2023/04/09 08:12:29;;;;;;;;;26.50;22.50;;;;;20.39;55.05;101826.22;110217;1264;18811;-40
2023/04/09 08:14:56;;;;;;;;;17.00;16.00;;;;;20.38;54.96;101829.84;110268;1264;20911;-41
2023/04/09 08:17:24;;;;;;;;;16.00;14.00;;;;;20.37;54.68;101830.48;110242;1264;19964;-40
2023/04/09 08:19:52;;;;;;;;;14.00;12.00;;;;;20.35;54.78;101829.17;110201;1264;18709;-41
2023/04/09 08:22:19;;;;;;;;;20.00;16.00;;;;;20.32;54.58;101831.80;110198;1250;20808;-40
2023/04/09 08:24:46;;;;;;;;;19.50;16.50;;;;;20.30;54.70;101824.05;110200;1252;22693;-40
2023/04/09 08:27:14;;;;;;;;;17.00;14.00;;;;;20.29;54.39;101826.69;109930;1257;160487;-40
2023/04/09 08:29:42;;;;;;;;;18.00;16.00;;;;;20.29;54.06;101828.30;110244;1251;20751;-40
2023/04/09 08:32:10;;;;;;;;;13.00;13.00;;;;;20.28;54.00;101828.36;110220;1249;20029;-40
2023/04/09 08:34:37;;;;;;;;;16.00;13.67;;;;;20.28;53.92;101828.23;110257;1251;18569;-40
2023/04/09 08:37:05;;;;;;;;;16.00;13.00;;;;;20.28;54.01;101825.51;110243;1251;20990;-40
2023/04/09 08:39:33;;;;;;;;;14.00;13.00;;;;;20.27;54.06;101826.86;110232;1251;22994;-40
2023/04/09 08:42:01;;;;;;;;;12.00;10.00;;;;;20.27;53.81;101827.02;110260;1259;18845;-41
2023/04/09 08:44:28;;;;;;;;;19.00;14.00;;;;;20.26;53.70;101823.50;110276;1264;19564;-40
2023/04/09 08:46:56;;;;;;;;;11.50;9.50;;;;;20.26;53.63;101827.48;110237;1264;18725;-40
2023/04/09 08:49:23;;;;;;;;;10.00;8.00;;;;;20.25;53.51;101824.49;110177;1257;18903;-40
2023/04/09 08:51:51;;;;;;;;;9.00;9.00;;;;;20.25;53.53;101824.29;110154;1264;20907;-40
2023/04/09 08:54:19;;;;;;;;;10.00;8.00;;;;;20.24;53.49;101820.58;110199;1264;18567;-40
2023/04/09 08:56:46;;;;;;;;;10.00;10.00;;;;;20.26;53.19;101820.61;110236;1264;23281;-40
2023/04/09 08:59:13;;;;;;;;;10.00;9.00;;;;;20.29;53.24;101819.37;110189;1251;20784;-41
2023/04/09 09:01:41;;;;;;;;;13.00;10.50;;;;;20.31;53.34;101821.98;110187;1251;20205;-41
2023/04/09 09:04:08;;;;;;;;;20.00;17.00;;;;;20.32;53.75;101820.45;110167;1264;20071;-41
2023/04/09 09:06:36;;;;;;;;;43.00;41.33;;;;;20.29;54.07;101817.46;110190;1264;19428;-42
2023/04/09 09:09:03;;;;;;;;;43.00;41.00;;;;;20.26;54.37;101818.02;110174;1264;22648;-41
2023/04/09 09:11:31;;;;;;;;;36.00;30.00;;;;;20.23;54.03;101818.33;110185;1264;22142;-41
2023/04/09 09:13:59;;;;;;;;;32.00;30.00;;;;;20.20;53.46;101820.48;110191;1264;19367;-41
2023/04/09 09:16:27;;;;;;;;;26.00;23.50;;;;;20.17;52.71;101818.20;110165;1250;21829;-41
2023/04/09 09:18:55;;;;;;;;;25.00;22.00;;;;;20.19;52.36;101816.70;110243;1264;20134;-40
2023/04/09 09:21:23;;;;;;;;;22.00;22.00;;;;;20.25;52.19;101819.65;110232;1257;20738;-41
2023/04/09 09:23:50;;;;;;;;;22.50;19.50;;;;;20.27;52.05;101824.45;110302;1251;20073;-43
2023/04/09 09:26:18;;;;;;;;;20.00;19.00;;;;;20.28;51.77;101824.25;110207;1264;20091;-41
2023/04/09 09:28:45;;;;;;;;;15.00;12.00;;;;;20.27;51.77;101830.70;110214;1264;21039;-40
2023/04/09 09:31:13;;;;;;;;;11.00;11.00;;;;;20.24;52.00;101831.48;110191;1251;21182;-41
2023/04/09 09:33:40;;;;;;;;;13.00;13.00;;;;;20.23;52.01;101830.48;110163;1264;20073;-41
2023/04/09 09:36:09;;;;;;;;;13.00;11.00;;;;;20.24;51.92;101831.00;110162;1251;20809;-41
2023/04/09 09:38:36;;;;;;;;;14.00;14.00;;;;;20.23;52.04;101831.55;110205;1264;20283;-38
2023/04/09 09:41:03;;;;;;;;;17.00;13.50;;;;;20.24;51.91;101830.23;110157;1250;20511;-40
2023/04/09 09:43:31;;;;;;;;;13.00;13.00;;;;;20.24;52.04;101822.77;110188;1264;20688;-40
2023/04/09 09:45:58;;;;;;;;;11.00;10.00;;;;;20.24;51.96;101833.19;110182;1264;23293;-41
2023/04/09 09:48:26;;;;;;;;;9.00;9.00;;;;;20.25;52.07;101832.54;110188;1264;18589;-41
2023/04/09 09:50:53;;;;;;;;;10.00;8.00;;;;;20.26;52.11;101831.30;110199;1264;22181;-39
2023/04/09 09:53:21;;;;;;;;;8.00;8.00;;;;;20.28;52.15;101828.09;110180;1264;19548;-39
2023/04/09 09:55:48;;;;;;;;;10.00;8.00;;;;;20.30;52.15;101829.30;110176;1265;20203;-40
2023/04/09 09:58:16;;;;;;;;;10.00;10.00;;;;;20.32;52.15;101825.98;110177;1264;20715;-40
2023/04/09 10:00:43;;;;;;;;;11.00;10.00;;;;;20.34;52.12;101826.23;110173;1251;18607;-40
2023/04/09 10:03:11;;;;;;;;;9.33;9.33;;;;;20.33;51.92;101825.92;110204;1264;18756;-40
2023/04/09 10:05:39;;;;;;;;;11.00;11.00;;;;;20.32;51.89;101824.17;110166;1264;22321;-40
2023/04/09 10:08:06;;;;;;;;;10.00;8.00;;;;;20.31;51.82;101817.36;110194;1264;19573;-40
2023/04/09 10:10:34;;;;;;;;;5.00;5.00;;;;;20.30;52.04;101816.05;110214;1257;18671;-42
2023/04/09 10:13:01;;;;;;;;;5.00;5.00;;;;;20.30;52.15;101817.69;110202;1251;21803;-40
2023/04/09 10:15:29;;;;;;;;;9.00;9.00;;;;;20.29;52.01;101811.05;110200;1266;18488;-42
2023/04/09 10:17:57;;;;;;;;;7.00;7.00;;;;;20.30;52.15;101817.31;110214;1264;22072;-43
2023/04/09 10:20:24;;;;;;;;;5.00;5.00;;;;;20.29;52.07;101819.95;110209;1250;19365;-41
2023/04/09 10:22:52;;;;;;;;;5.00;5.00;;;;;20.29;51.92;101821.77;110233;1264;18426;-41
2023/04/09 10:25:19;;;;;;;;;7.00;5.00;;;;;20.30;52.02;101809.18;110212;1256;18661;-40
2023/04/09 10:27:48;;;;;;;;;4.00;4.00;;;;;20.30;51.90;101813.54;110205;1264;20755;-42
2023/04/09 10:30:15;;;;;;;;;4.50;4.50;;;;;20.30;51.78;101810.58;110210;1257;20270;-42
2023/04/09 10:32:43;;;;;;;;;5.00;5.00;;;;;20.31;51.92;101811.50;110192;1264;22751;-42
2023/04/09 10:35:10;;;;;;;;;5.00;5.00;;;;;20.30;51.85;101819.70;110196;1249;23893;-42
2023/04/09 10:37:38;;;;;;;;;5.00;5.00;;;;;20.30;51.73;101820.41;110198;1264;19509;-41
2023/04/09 10:40:05;;;;;;;;;5.00;5.00;;;;;20.31;51.65;101819.46;110207;1264;21229;-41
2023/04/09 10:42:33;;;;;;;;;4.00;4.00;;;;;20.29;51.75;101817.44;110201;1251;20926;-41
2023/04/09 10:45:00;;;;;;;;;4.50;4.50;;;;;20.30;51.87;101821.55;110189;1251;18597;-42
2023/04/09 10:47:28;;;;;;;;;5.00;5.00;;;;;20.30;51.82;101821.50;110192;1264;22819;-42
2023/04/09 10:49:55;;;;;;;;;5.00;4.00;;;;;20.29;51.76;101822.31;110226;1251;19357;-41
2023/04/09 10:52:23;;;;;;;;;4.00;4.00;;;;;20.30;51.72;101821.16;110200;1264;18337;-41
2023/04/09 10:54:50;;;;;;;;;4.00;4.00;;;;;20.30;51.77;101819.70;110191;1250;23940;-42
2023/04/09 10:57:18;;;;;;;;;5.00;5.00;;;;;20.29;51.71;101823.40;110222;1251;20762;-41
2023/04/09 10:59:45;;;;;;;;;5.00;4.67;;;;;20.27;51.78;101823.91;110225;1251;18400;-40
2023/04/09 11:02:13;;;;;;;;;5.00;5.00;;;;;20.27;51.74;101826.66;110207;1264;19878;-41
2023/04/09 11:04:40;;;;;;;;;7.00;4.00;;;;;20.28;51.57;101829.10;110206;1264;21242;-43
2023/04/09 11:07:08;;;;;;;;;4.00;4.00;;;;;20.27;51.44;101828.98;110273;1251;19608;-40
2023/04/09 11:09:35;;;;;;;;;4.00;4.00;;;;;20.28;51.52;101830.60;110191;1264;18821;-40
2023/04/09 11:12:03;;;;;;;;;3.00;3.00;;;;;20.27;51.48;101825.38;110172;1251;22329;-40
2023/04/09 11:14:31;;;;;;;;;4.00;4.00;;;;;20.29;51.44;101829.59;110247;1257;18414;-42